Wetterdaten: Woche 10.10.05 - 16.10.05 (KW41)
Datum Zeit Temperatur Luftfeuchte Luftdruck Niederschlag Windrichtung Wind
10.10.2005 00:00 8,7 C 99 % 1025 hPa 0,0 l/m NW 2,7 km/h (1 Bft)
10.10.2005 01:00 9,1 C 99 % 1024 hPa 0,0 l/m NW 3,3 km/h (1 Bft)
10.10.2005 02:00 9,6 C 100 % 1024 hPa 0,0 l/m NW 3,9 km/h (1 Bft)
10.10.2005 03:00 9,9 C 100 % 1024 hPa 0,0 l/m N 4,1 km/h (1 Bft)
10.10.2005 04:00 9,7 C 100 % 1024 hPa 0,0 l/m N-NO 6,9 km/h (2 Bft)
10.10.2005 05:00 9,6 C 100 % 1024 hPa 0,0 l/m N 3,9 km/h (1 Bft)
10.10.2005 06:00 9,5 C 100 % 1024 hPa 0,0 l/m N-NO 6,0 km/h (2 Bft)
10.10.2005 07:00 9,6 C 100 % 1024 hPa 0,0 l/m N-NO 1,0 km/h (0 Bft)
10.10.2005 08:00 9,7 C 100 % 1024 hPa 0,0 l/m N 0,0 km/h (0 Bft)
10.10.2005 09:00 9,9 C 100 % 1024 hPa 0,0 l/m N 0,0 km/h (0 Bft)
10.10.2005 10:00 10,3 C 100 % 1025 hPa 0,0 l/m N 0,0 km/h (0 Bft)
10.10.2005 11:00 10,8 C 100 % 1024 hPa 0,0 l/m N 0,0 km/h (0 Bft)
10.10.2005 12:00 11,8 C 100 % 1024 hPa 0,0 l/m NO 5,2 km/h (1 Bft)
10.10.2005 13:00 12,6 C 98 % 1024 hPa 0,0 l/m N-NW 8,0 km/h (2 Bft)
10.10.2005 14:00 14,8 C 81 % 1023 hPa 0,0 l/m N-NO 5,8 km/h (1 Bft)
10.10.2005 15:00 16,5 C 70 % 1022 hPa 0,0 l/m N-NO 2,3 km/h (1 Bft)
10.10.2005 16:00 15,6 C 73 % 1022 hPa 0,0 l/m N-NO 2,5 km/h (1 Bft)
10.10.2005 17:00 14,9 C 76 % 1022 hPa 0,0 l/m N 4,6 km/h (1 Bft)
10.10.2005 18:00 13,3 C 83 % 1022 hPa 0,0 l/m N 6,8 km/h (2 Bft)
10.10.2005 19:00 11,6 C 89 % 1022 hPa 0,0 l/m N-NW 7,6 km/h (2 Bft)
10.10.2005 20:00 11,0 C 96 % 1022 hPa 0,0 l/m N 6,3 km/h (2 Bft)
10.10.2005 21:00 10,8 C 98 % 1022 hPa 0,0 l/m N 3,8 km/h (1 Bft)
10.10.2005 22:00 10,6 C 100 % 1022 hPa 0,0 l/m N 3,2 km/h (1 Bft)
10.10.2005 23:00 10,4 C 100 % 1021 hPa 0,0 l/m N 6,8 km/h (2 Bft)
11.10.2005 00:00 10,1 C 100 % 1021 hPa 0,0 l/m N 0,0 km/h (0 Bft)
11.10.2005 01:00 9,8 C 100 % 1021 hPa 0,0 l/m N 0,0 km/h (0 Bft)
11.10.2005 02:00 9,6 C 100 % 1020 hPa 0,0 l/m N 0,0 km/h (0 Bft)
11.10.2005 03:00 9,5 C 100 % 1020 hPa 0,0 l/m W-SW 0,3 km/h (0 Bft)
11.10.2005 04:00 9,4 C 100 % 1020 hPa 0,0 l/m SW 0,6 km/h (0 Bft)
11.10.2005 05:00 9,5 C 100 % 1020 hPa 0,0 l/m W-SW 3,3 km/h (1 Bft)
11.10.2005 06:00 9,5 C 100 % 1020 hPa 0,0 l/m W-SW 2,3 km/h (1 Bft)
11.10.2005 07:00 9,7 C 100 % 1020 hPa 0,0 l/m N 0,0 km/h (0 Bft)
11.10.2005 08:00 9,9 C 100 % 1020 hPa 0,0 l/m N 0,0 km/h (0 Bft)
11.10.2005 09:00 10,1 C 100 % 1020 hPa 0,0 l/m N 0,0 km/h (0 Bft)
11.10.2005 10:00 11,0 C 100 % 1021 hPa 0,0 l/m O 2,0 km/h (1 Bft)
11.10.2005 11:00 12,8 C 89 % 1021 hPa 0,0 l/m S 9,8 km/h (2 Bft)
11.10.2005 12:00 14,7 C 73 % 1020 hPa 0,0 l/m S 12,9 km/h (3 Bft)
11.10.2005 13:00 17,0 C 66 % 1020 hPa 0,0 l/m S 11,2 km/h (2 Bft)
11.10.2005 14:00 18,5 C 57 % 1020 hPa 0,0 l/m S 8,1 km/h (2 Bft)
11.10.2005 15:00 18,9 C 53 % 1020 hPa 0,0 l/m O 3,8 km/h (1 Bft)
11.10.2005 16:00 17,7 C 55 % 1019 hPa 0,0 l/m N-NO 8,4 km/h (2 Bft)
11.10.2005 17:00 16,6 C 58 % 1019 hPa 0,0 l/m NO 8,4 km/h (2 Bft)
11.10.2005 18:00 15,1 C 68 % 1019 hPa 0,0 l/m N-NO 0,3 km/h (0 Bft)
11.10.2005 19:00 12,9 C 77 % 1019 hPa 0,0 l/m N-NO 0,6 km/h (0 Bft)
11.10.2005 20:00 11,3 C 84 % 1020 hPa 0,0 l/m NW 1,9 km/h (1 Bft)
11.10.2005 21:00 10,4 C 89 % 1020 hPa 0,0 l/m W-NW 4,5 km/h (1 Bft)
11.10.2005 22:00 9,8 C 93 % 1020 hPa 0,0 l/m NW 3,2 km/h (1 Bft)
11.10.2005 23:00 8,9 C 95 % 1020 hPa 0,0 l/m NW 3,3 km/h (1 Bft)
12.10.2005 00:00 7,8 C 96 % 1020 hPa 0,0 l/m N 0,0 km/h (0 Bft)
12.10.2005 01:00 7,4 C 97 % 1020 hPa 0,0 l/m N 0,0 km/h (0 Bft)
12.10.2005 02:00 7,1 C 98 % 1020 hPa 0,0 l/m N 0,0 km/h (0 Bft)
12.10.2005 03:00 6,7 C 100 % 1020 hPa 0,0 l/m N 0,0 km/h (0 Bft)
12.10.2005 04:00 6,7 C 100 % 1020 hPa 0,0 l/m NW 1,0 km/h (0 Bft)
12.10.2005 05:00 6,8 C 100 % 1020 hPa 0,0 l/m NW 1,1 km/h (0 Bft)
12.10.2005 06:00 6,4 C 100 % 1020 hPa 0,0 l/m N-NW 0,6 km/h (0 Bft)
12.10.2005 07:00 5,9 C 100 % 1020 hPa 0,0 l/m W 0,8 km/h (0 Bft)
12.10.2005 08:00 5,5 C 100 % 1020 hPa 0,0 l/m N 0,0 km/h (0 Bft)
12.10.2005 09:00 6,0 C 100 % 1021 hPa 0,0 l/m N 0,0 km/h (0 Bft)
12.10.2005 10:00 7,5 C 100 % 1021 hPa 0,0 l/m N 0,7 km/h (0 Bft)
12.10.2005 11:00 10,5 C 99 % 1020 hPa 0,0 l/m N 4,4 km/h (1 Bft)
12.10.2005 12:00 13,3 C 81 % 1020 hPa 0,0 l/m N 2,3 km/h (1 Bft)
12.10.2005 13:00 16,7 C 60 % 1020 hPa 0,0 l/m O 4,5 km/h (1 Bft)
12.10.2005 14:00 19,4 C 40 % 1019 hPa 0,0 l/m O 2,6 km/h (1 Bft)
12.10.2005 15:00 19,7 C 36 % 1018 hPa 0,0 l/m N-NO 5,5 km/h (1 Bft)
12.10.2005 16:00 17,7 C 46 % 1018 hPa 0,0 l/m N-NO 12,0 km/h (2 Bft)
12.10.2005 17:00 16,2 C 53 % 1018 hPa 0,0 l/m N-NO 10,1 km/h (2 Bft)
12.10.2005 18:00 14,5 C 63 % 1018 hPa 0,0 l/m N-NO 2,0 km/h (1 Bft)
12.10.2005 19:00 11,9 C 73 % 1018 hPa 0,0 l/m W-NW 5,5 km/h (1 Bft)
12.10.2005 20:00 10,7 C 81 % 1018 hPa 0,0 l/m W-NW 7,8 km/h (2 Bft)
12.10.2005 21:00 9,8 C 87 % 1018 hPa 0,0 l/m NW 8,2 km/h (2 Bft)
12.10.2005 22:00 9,1 C 90 % 1018 hPa 0,0 l/m NW 6,7 km/h (2 Bft)
12.10.2005 23:00 8,4 C 93 % 1018 hPa 0,0 l/m NW 3,1 km/h (1 Bft)
13.10.2005 00:00 7,7 C 94 % 1018 hPa 0,0 l/m N 0,0 km/h (0 Bft)
13.10.2005 01:00 7,3 C 95 % 1018 hPa 0,0 l/m W-NW 3,2 km/h (1 Bft)
13.10.2005 02:00 7,1 C 97 % 1018 hPa 0,0 l/m N 0,0 km/h (0 Bft)
13.10.2005 03:00 7,1 C 98 % 1018 hPa 0,0 l/m N 0,0 km/h (0 Bft)
13.10.2005 04:00 6,8 C 99 % 1018 hPa 0,0 l/m N 0,0 km/h (0 Bft)
13.10.2005 05:00 6,6 C 100 % 1018 hPa 0,0 l/m N 0,0 km/h (0 Bft)
13.10.2005 06:00 6,0 C 100 % 1018 hPa 0,0 l/m N 0,0 km/h (0 Bft)
13.10.2005 07:00 5,8 C 100 % 1019 hPa 0,0 l/m N 0,0 km/h (0 Bft)
13.10.2005 08:00 5,4 C 100 % 1019 hPa 0,0 l/m N 0,0 km/h (0 Bft)
13.10.2005 09:00 5,6 C 100 % 1020 hPa 0,0 l/m N 0,0 km/h (0 Bft)
13.10.2005 10:00 6,4 C 100 % 1020 hPa 0,0 l/m N-NO 0,4 km/h (0 Bft)
13.10.2005 11:00 7,5 C 100 % 1020 hPa 0,0 l/m NO 0,5 km/h (0 Bft)
13.10.2005 12:00 9,1 C 100 % 1020 hPa 0,0 l/m W-NW 0,2 km/h (0 Bft)
13.10.2005 13:00 12,3 C 93 % 1020 hPa 0,0 l/m O-NO 1,9 km/h (1 Bft)
13.10.2005 14:00 16,1 C 65 % 1019 hPa 0,0 l/m NO 1,2 km/h (1 Bft)
13.10.2005 15:00 17,5 C 47 % 1019 hPa 0,0 l/m N-NO 2,8 km/h (1 Bft)
13.10.2005 16:00 16,3 C 44 % 1019 hPa 0,0 l/m O 2,5 km/h (1 Bft)
13.10.2005 17:00 15,1 C 53 % 1020 hPa 0,0 l/m O-NO 0,1 km/h (0 Bft)
13.10.2005 18:00 12,6 C 66 % 1020 hPa 0,0 l/m W-NW 1,1 km/h (1 Bft)
13.10.2005 19:00 10,6 C 76 % 1021 hPa 0,0 l/m W-NW 3,7 km/h (1 Bft)
13.10.2005 20:00 9,6 C 85 % 1021 hPa 0,0 l/m W-NW 2,8 km/h (1 Bft)
13.10.2005 21:00 8,6 C 87 % 1022 hPa 0,0 l/m N 0,0 km/h (0 Bft)
13.10.2005 22:00 7,7 C 89 % 1022 hPa 0,0 l/m N 0,0 km/h (0 Bft)
13.10.2005 23:00 6,7 C 90 % 1022 hPa 0,0 l/m N 0,0 km/h (0 Bft)
14.10.2005 00:00 5,4 C 91 % 1023 hPa 0,0 l/m N 0,0 km/h (0 Bft)
14.10.2005 01:00 4,4 C 92 % 1023 hPa 0,0 l/m N 0,0 km/h (0 Bft)
14.10.2005 02:00 3,5 C 93 % 1023 hPa 0,0 l/m N 0,0 km/h (0 Bft)
14.10.2005 03:00 3,0 C 94 % 1023 hPa 0,0 l/m N 0,0 km/h (0 Bft)
14.10.2005 04:00 2,7 C 96 % 1023 hPa 0,0 l/m N 0,0 km/h (0 Bft)
14.10.2005 05:00 2,7 C 97 % 1023 hPa 0,0 l/m N 0,0 km/h (0 Bft)
14.10.2005 06:00 2,9 C 98 % 1023 hPa 0,0 l/m N 0,0 km/h (0 Bft)
14.10.2005 07:00 2,8 C 99 % 1024 hPa 0,0 l/m N 0,0 km/h (0 Bft)
14.10.2005 08:00 3,0 C 100 % 1025 hPa 0,0 l/m N 0,0 km/h (0 Bft)
14.10.2005 09:00 4,7 C 100 % 1026 hPa 0,0 l/m N 0,0 km/h (0 Bft)
14.10.2005 10:00 7,8 C 100 % 1026 hPa 0,0 l/m N 1,5 km/h (1 Bft)
14.10.2005 11:00 12,0 C 85 % 1026 hPa 0,0 l/m O 1,2 km/h (1 Bft)
14.10.2005 12:00 14,4 C 62 % 1026 hPa 0,0 l/m NO 7,9 km/h (2 Bft)
14.10.2005 13:00 16,8 C 43 % 1026 hPa 0,0 l/m O 7,6 km/h (2 Bft)
14.10.2005 14:00 18,7 C 39 % 1026 hPa 0,0 l/m O-NO 9,1 km/h (2 Bft)
14.10.2005 15:00 18,4 C 44 % 1025 hPa 0,0 l/m N-NO 11,3 km/h (2 Bft)
14.10.2005 16:00 16,6 C 53 % 1025 hPa 0,0 l/m N-NO 12,7 km/h (3 Bft)
14.10.2005 17:00 15,2 C 62 % 1025 hPa 0,0 l/m N 10,1 km/h (2 Bft)
14.10.2005 18:00 13,2 C 71 % 1026 hPa 0,0 l/m N-NW 10,4 km/h (2 Bft)
14.10.2005 19:00 11,1 C 82 % 1026 hPa 0,0 l/m N 9,0 km/h (2 Bft)
14.10.2005 20:00 9,9 C 88 % 1027 hPa 0,0 l/m N-NW 5,4 km/h (1 Bft)
14.10.2005 21:00 9,0 C 91 % 1027 hPa 0,0 l/m NW 3,4 km/h (1 Bft)
14.10.2005 22:00 8,1 C 92 % 1027 hPa 0,0 l/m NW 4,3 km/h (1 Bft)
14.10.2005 23:00 7,4 C 94 % 1027 hPa 0,0 l/m N 2,8 km/h (1 Bft)
15.10.2005 00:00 7,0 C 96 % 1027 hPa 0,0 l/m NW 5,1 km/h (1 Bft)
15.10.2005 01:00 6,6 C 97 % 1027 hPa 0,0 l/m NW 7,2 km/h (2 Bft)
15.10.2005 02:00 6,1 C 98 % 1027 hPa 0,0 l/m W-NW 2,4 km/h (1 Bft)
15.10.2005 03:00 5,2 C 98 % 1027 hPa 0,0 l/m NW 0,7 km/h (0 Bft)
15.10.2005 04:00 5,4 C 99 % 1027 hPa 0,0 l/m NW 2,7 km/h (1 Bft)
15.10.2005 05:00 5,5 C 100 % 1027 hPa 0,0 l/m NW 3,5 km/h (1 Bft)
15.10.2005 06:00 5,5 C 100 % 1027 hPa 0,0 l/m N-NO 5,2 km/h (1 Bft)
15.10.2005 07:00 5,1 C 100 % 1027 hPa 0,0 l/m N 7,1 km/h (2 Bft)
15.10.2005 08:00 5,1 C 100 % 1027 hPa 0,0 l/m N-NW 7,0 km/h (2 Bft)
15.10.2005 09:00 5,7 C 100 % 1028 hPa 0,0 l/m N 6,9 km/h (2 Bft)
15.10.2005 10:00 6,3 C 100 % 1028 hPa 0,0 l/m N-NW 6,3 km/h (2 Bft)
15.10.2005 11:00 7,4 C 100 % 1028 hPa 0,0 l/m N 8,4 km/h (2 Bft)
15.10.2005 12:00 9,4 C 96 % 1028 hPa 0,0 l/m N 10,7 km/h (2 Bft)
15.10.2005 13:00 10,8 C 79 % 1028 hPa 0,0 l/m N 13,1 km/h (3 Bft)
15.10.2005 14:00 12,6 C 71 % 1027 hPa 0,0 l/m N-NW 11,8 km/h (2 Bft)
15.10.2005 15:00 13,2 C 69 % 1026 hPa 0,0 l/m N 12,8 km/h (3 Bft)
15.10.2005 16:00 11,8 C 77 % 1026 hPa 0,0 l/m N 12,2 km/h (2 Bft)
15.10.2005 17:00 11,6 C 80 % 1026 hPa 0,0 l/m N 9,6 km/h (2 Bft)
15.10.2005 18:00 10,5 C 84 % 1026 hPa 0,0 l/m NW 8,0 km/h (2 Bft)
15.10.2005 19:00 9,5 C 88 % 1026 hPa 0,0 l/m NW 8,4 km/h (2 Bft)
15.10.2005 20:00 8,7 C 91 % 1026 hPa 0,0 l/m NW 3,0 km/h (1 Bft)
15.10.2005 21:00 8,3 C 93 % 1026 hPa 0,0 l/m N-NW 5,0 km/h (1 Bft)
15.10.2005 22:00 8,3 C 95 % 1026 hPa 0,0 l/m N-NW 3,6 km/h (1 Bft)
15.10.2005 23:00 7,8 C 96 % 1026 hPa 0,0 l/m N-NW 3,7 km/h (1 Bft)
16.10.2005 00:00 7,0 C 96 % 1026 hPa 0,0 l/m W-NW 5,0 km/h (1 Bft)
16.10.2005 01:00 6,3 C 96 % 1026 hPa 0,0 l/m W-NW 5,4 km/h (1 Bft)
16.10.2005 02:00 5,8 C 98 % 1026 hPa 0,0 l/m NW 2,5 km/h (1 Bft)
16.10.2005 03:00 5,5 C 98 % 1026 hPa 0,0 l/m NW 7,4 km/h (2 Bft)
16.10.2005 04:00 5,2 C 99 % 1025 hPa 0,0 l/m NW 7,8 km/h (2 Bft)
16.10.2005 05:00 5,0 C 99 % 1025 hPa 0,0 l/m N 3,9 km/h (1 Bft)
16.10.2005 06:00 4,0 C 100 % 1026 hPa 0,0 l/m S 1,3 km/h (1 Bft)
16.10.2005 07:00 4,0 C 100 % 1026 hPa 0,0 l/m N 0,0 km/h (0 Bft)
16.10.2005 08:00 4,5 C 100 % 1026 hPa 0,0 l/m N 2,6 km/h (1 Bft)
16.10.2005 09:00 5,2 C 100 % 1026 hPa 0,0 l/m N-NW 2,8 km/h (1 Bft)
16.10.2005 10:00 6,0 C 100 % 1026 hPa 0,0 l/m N-NW 4,0 km/h (1 Bft)
16.10.2005 11:00 6,8 C 100 % 1026 hPa 0,0 l/m N 0,0 km/h (0 Bft)
16.10.2005 12:00 7,4 C 100 % 1026 hPa 0,0 l/m N 0,0 km/h (0 Bft)
16.10.2005 13:00 8,3 C 100 % 1025 hPa 0,0 l/m N-NO 7,2 km/h (2 Bft)
16.10.2005 14:00 9,0 C 97 % 1025 hPa 0,0 l/m N-NO 5,4 km/h (1 Bft)
16.10.2005 15:00 9,7 C 92 % 1024 hPa 0,0 l/m N 0,9 km/h (0 Bft)
16.10.2005 16:00 10,9 C 82 % 1024 hPa 0,0 l/m NO 6,9 km/h (2 Bft)
16.10.2005 17:00 11,4 C 77 % 1024 hPa 0,0 l/m NO 1,6 km/h (1 Bft)
16.10.2005 18:00 10,1 C 81 % 1024 hPa 0,0 l/m N-NO 0,6 km/h (0 Bft)
16.10.2005 19:00 8,5 C 87 % 1024 hPa 0,0 l/m W-NW 4,4 km/h (1 Bft)
16.10.2005 20:00 7,8 C 89 % 1024 hPa 0,0 l/m NW 3,0 km/h (1 Bft)
16.10.2005 21:00 7,2 C 92 % 1024 hPa 0,0 l/m NW 2,3 km/h (1 Bft)
16.10.2005 22:00 6,7 C 94 % 1024 hPa 0,0 l/m NW 5,0 km/h (1 Bft)
16.10.2005 23:00 6,2 C 95 % 1024 hPa 0,0 l/m W-NW 6,8 km/h (2 Bft)
Min-Datum _ 14.10.05 12.10.05 12.10.05 - - 10.10.05
_ Min-Zeit 04:29 14:59 19:00 - - 00:33
Minimum _ 2,6 C 35 % 1017 hPa - - 0,0 km/h (0 Bft)
Max-Datum _ 12.10.05 10.10.05 15.10.05 10.10.05 - 11.10.05
_ Max-Zeit 14:55 01:30 09:00 00:00 - 13:06
Maximum _ 20,1 C 100 % 1028 hPa 0,0 l/m - 22,7 km/h
S (4 Bft)
Durchschnitt _ 9,6 C 88 % 1023 hPa #0,0 l/m NW 3,7 km/h (1 Bft)

Durchschnitt Minimum Temp.9,1 C
Durchschnitt Maximum Temp.10,1 C